Time;durP1;ratioP1;P1;durP2;ratioP2;P2;SDS_P1;SDS_P2;PMS_P1;PMS_P2;Temp;Humidity;BMP_temperature;BMP_pressure;BME280_temperature;BME280_humidity;BME280_pressure;Samples;Min_cycle;Max_cycle;Signal;HPM_P1;HPM_P2
2021/03/01 00:14:22;;;;;;;10.18;7.03;;;;;;;6.31;57.98;101763.81;4972475;28;20085;-87
2021/03/01 00:37:03;;;;;;;11.55;7.72;;;;;;;6.29;58.23;101766.44;4953308;28;20121;-87
2021/03/01 01:19:17;;;;;;;11.82;6.70;;;;;;;6.14;58.60;101756.94;4975691;28;20235;-87
2021/03/01 01:26:58;;;;;;;13.25;7.65;;;;;;;6.13;58.53;101761.28;4975699;28;20101;-87
2021/03/01 02:31:56;;;;;;;78.90;11.88;;;;;;;5.91;60.37;101709.97;4824120;29;20122;-87
2021/03/01 02:46:45;;;;;;;53.92;12.40;;;;;;;6.09;59.43;101704.66;4987881;22;20064;-83
2021/03/01 02:49:12;;;;;;;54.53;10.68;;;;;;;6.12;59.70;101694.19;5034339;28;20057;-82
2021/03/01 02:51:41;;;;;;;47.88;12.30;;;;;;;6.15;60.49;101695.91;5005726;28;20451;-83
2021/03/01 02:54:08;;;;;;;46.95;10.93;;;;;;;6.20;59.97;101690.66;4999748;28;20101;-83
2021/03/01 02:56:36;;;;;;;36.28;11.90;;;;;;;6.24;60.08;101694.94;5015597;28;20116;-83
2021/03/01 02:59:04;;;;;;;44.35;11.05;;;;;;;6.25;60.44;101696.72;4998943;28;20403;-82
2021/03/01 03:01:32;;;;;;;36.25;10.93;;;;;;;6.28;60.35;101695.81;4998569;28;20046;-83
2021/03/01 03:04:01;;;;;;;43.28;11.25;;;;;;;6.32;60.33;101702.75;5000424;28;20057;-83
2021/03/01 03:06:30;;;;;;;52.65;11.57;;;;;;;6.34;60.50;101696.63;5009829;28;20054;-83
2021/03/01 03:08:58;;;;;;;54.53;12.98;;;;;;;6.38;60.36;101708.81;4997732;28;20050;-83
2021/03/01 03:11:26;;;;;;;104.65;13.00;;;;;;;6.42;60.85;101701.78;5015584;28;20100;-83
2021/03/01 03:13:54;;;;;;;37.90;10.13;;;;;;;6.44;60.57;101707.03;5034612;28;20455;-83
2021/03/01 03:16:24;;;;;;;44.40;10.77;;;;;;;6.47;60.97;101709.63;5018847;28;20056;-84
2021/03/01 03:18:53;;;;;;;36.33;9.02;;;;;;;6.49;60.96;101700.88;4997599;28;20128;-84
2021/03/01 03:21:20;;;;;;;35.03;9.25;;;;;;;6.52;60.64;101705.22;5008337;28;20049;-84
2021/03/01 03:23:46;;;;;;;18.70;10.00;;;;;;;6.54;60.56;101708.66;5034651;28;20454;-84
2021/03/01 03:26:13;;;;;;;40.92;10.75;;;;;;;6.57;60.93;101713.00;5002827;28;20054;-84
2021/03/01 03:28:45;;;;;;;28.33;9.48;;;;;;;6.56;62.03;101713.88;5014816;28;20054;-84
2021/03/01 03:31:12;;;;;;;22.67;8.40;;;;;;;6.61;60.41;101717.31;5014830;28;20061;-84
2021/03/01 03:33:39;;;;;;;31.42;7.53;;;;;;;6.63;60.74;101713.84;4997384;28;20661;-83
2021/03/01 03:36:07;;;;;;;26.50;7.93;;;;;;;6.63;60.71;101712.97;4999516;28;20056;-84
2021/03/01 03:38:44;;;;;;;32.10;7.50;;;;;;;6.59;61.62;101712.13;5014544;28;20050;-84
2021/03/01 03:41:13;;;;;;;45.70;7.53;;;;;;;6.60;60.94;101705.13;5014596;28;20046;-84
2021/03/01 03:43:44;;;;;;;35.70;8.75;;;;;;;6.58;61.64;101707.75;4997334;28;20054;-83
2021/03/01 03:46:12;;;;;;;37.58;7.60;;;;;;;6.59;61.14;101708.63;5026778;28;20507;-84
2021/03/01 03:48:41;;;;;;;54.78;7.35;;;;;;;6.59;61.06;101713.88;5034526;28;20107;-84
2021/03/01 03:51:09;;;;;;;55.80;8.70;;;;;;;6.59;61.53;101711.25;5017037;28;20045;-83
2021/03/01 03:53:44;;;;;;;74.45;11.43;;;;;;;6.58;62.64;101706.91;5033824;28;20060;-82
2021/03/01 03:56:13;;;;;;;50.47;11.13;;;;;;;6.61;61.92;101712.09;5020218;28;20099;-82
2021/03/01 03:58:45;;;;;;;44.63;12.02;;;;;;;6.66;62.13;101715.56;5015206;28;20058;-82
2021/03/01 04:01:19;;;;;;;42.22;10.60;;;;;;;6.68;62.75;101716.41;4996342;28;20049;-83
2021/03/01 04:03:49;;;;;;;22.15;9.75;;;;;;;6.73;61.34;101714.59;5016353;28;20442;-82
2021/03/01 04:06:18;;;;;;;19.98;8.75;;;;;;;6.76;61.74;101705.84;5033278;28;20103;-84
2021/03/01 04:08:49;;;;;;;24.52;9.85;;;;;;;6.77;61.57;101712.84;5034230;28;20052;-84
2021/03/01 04:11:20;;;;;;;21.73;10.15;;;;;;;6.77;61.80;101712.84;5032864;28;20476;-83
2021/03/01 04:13:48;;;;;;;19.30;8.80;;;;;;;6.78;61.51;101711.97;5015110;28;20053;-83
2021/03/01 04:16:15;;;;;;;15.48;8.13;;;;;;;6.78;61.40;101709.34;5033581;28;20049;-84
2021/03/01 04:18:45;;;;;;;17.27;6.90;;;;;;;6.77;61.30;101705.84;5033718;28;20052;-84
2021/03/01 04:21:12;;;;;;;15.00;8.07;;;;;;;6.78;61.17;101717.19;5033304;28;20408;-83
2021/03/01 04:23:42;;;;;;;17.42;7.88;;;;;;;6.79;61.70;101716.31;5031333;28;20053;-83
2021/03/01 04:26:08;;;;;;;13.95;7.53;;;;;;;6.80;61.29;101712.78;5016265;28;20103;-84
2021/03/01 04:28:35;;;;;;;16.70;8.02;;;;;;;6.81;61.15;101719.78;5016207;28;20049;-84
2021/03/01 04:31:04;;;;;;;13.35;7.05;;;;;;;6.81;61.41;101714.56;5016396;28;20103;-84
2021/03/01 04:33:34;;;;;;;16.30;6.63;;;;;;;6.80;61.86;101712.78;5016621;28;20060;-84
2021/03/01 04:36:01;;;;;;;16.63;7.60;;;;;;;6.82;61.29;101708.44;4996194;28;20436;-84
2021/03/01 04:38:28;;;;;;;12.52;6.38;;;;;;;6.83;61.42;101707.53;5013577;28;20081;-83
2021/03/01 04:40:55;;;;;;;12.82;6.45;;;;;;;6.84;61.51;101711.88;4996070;28;20041;-83
2021/03/01 04:43:23;;;;;;;14.68;6.88;;;;;;;6.85;61.54;101713.66;5030496;28;20103;-84
2021/03/01 04:45:53;;;;;;;12.77;6.35;;;;;;;6.87;62.11;101716.22;5032806;28;20050;-84
2021/03/01 04:48:21;;;;;;;13.30;6.47;;;;;;;6.89;61.58;101712.69;5016513;28;20060;-84
2021/03/01 04:50:52;;;;;;;11.55;6.35;;;;;;;6.89;62.05;101712.69;5034088;28;20045;-83
2021/03/01 04:53:19;;;;;;;14.77;6.07;;;;;;;6.91;61.31;101708.34;4999436;28;20050;-84
2021/03/01 04:55:46;;;;;;;14.27;6.13;;;;;;;6.93;61.34;101707.44;4995929;28;20058;-83
2021/03/01 04:58:15;;;;;;;15.02;5.72;;;;;;;6.93;61.60;101715.31;4996194;28;20132;-83
2021/03/01 05:00:42;;;;;;;15.98;6.30;;;;;;;6.95;61.20;101714.41;5013622;28;20045;-84
2021/03/01 05:03:08;;;;;;;17.50;6.40;;;;;;;6.96;61.34;101716.16;5009713;28;20415;-82
2021/03/01 05:05:35;;;;;;;11.48;6.00;;;;;;;6.99;61.13;101702.16;5005163;28;20488;-83
2021/03/01 05:08:03;;;;;;;13.98;6.00;;;;;;;7.00;61.41;101703.88;4996508;28;20080;-84
2021/03/01 05:10:32;;;;;;;13.50;6.32;;;;;;;7.01;61.37;101703.88;5013603;28;20042;-84
2021/03/01 05:12:58;;;;;;;18.05;5.97;;;;;;;7.02;60.81;101704.72;5013498;28;20049;-82
2021/03/01 05:15:24;;;;;;;13.85;6.32;;;;;;;7.04;61.14;101708.22;4995567;28;20100;-83
2021/03/01 05:17:50;;;;;;;17.88;6.72;;;;;;;7.05;61.03;101709.94;4996599;28;20621;-84
2021/03/01 05:20:17;;;;;;;12.77;5.90;;;;;;;7.05;60.99;101712.56;4995729;28;20046;-84
2021/03/01 05:22:43;;;;;;;12.23;6.03;;;;;;;7.05;60.99;101715.19;5015907;28;20057;-84
2021/03/01 05:25:10;;;;;;;12.38;6.05;;;;;;;7.03;60.93;101714.34;4995995;28;20049;-84
2021/03/01 05:27:36;;;;;;;14.05;5.75;;;;;;;7.03;61.22;101706.50;5013248;28;20057;-82
2021/03/01 05:30:05;;;;;;;14.00;6.55;;;;;;;7.02;61.33;101710.84;5013442;28;20067;-84
2021/03/01 05:32:32;;;;;;;13.85;6.72;;;;;;;7.03;61.39;101709.09;5022160;28;20056;-84
2021/03/01 05:34:59;;;;;;;19.98;7.30;;;;;;;7.05;61.63;101704.72;5015095;28;20516;-84
2021/03/01 05:37:25;;;;;;;16.50;6.75;;;;;;;7.07;61.25;101704.69;5032703;28;20045;-84
2021/03/01 05:39:51;;;;;;;14.00;6.55;;;;;;;7.06;61.00;101697.72;5015456;28;20463;-84
2021/03/01 05:42:19;;;;;;;18.92;7.63;;;;;;;7.07;61.36;101704.69;5027864;28;20053;-82
2021/03/01 05:44:45;;;;;;;16.63;7.18;;;;;;;7.07;60.78;101697.72;5012772;28;20053;-84
2021/03/01 05:47:12;;;;;;;15.80;6.90;;;;;;;7.07;61.11;101697.72;4998016;28;20623;-84
2021/03/01 05:49:40;;;;;;;16.45;5.65;;;;;;;7.04;61.00;101705.59;4999254;28;20053;-84
2021/03/01 05:52:07;;;;;;;18.00;7.00;;;;;;;7.03;61.22;101709.94;5003677;28;20460;-83
2021/03/01 05:54:35;;;;;;;18.92;7.78;;;;;;;7.03;61.12;101703.88;5036261;28;20103;-84
2021/03/01 05:57:06;;;;;;;17.35;7.95;;;;;;;7.00;61.49;101709.13;5018293;28;20045;-82
2021/03/01 05:59:35;;;;;;;16.00;7.07;;;;;;;7.00;61.52;101709.13;5037226;28;20049;-84
2021/03/01 06:02:03;;;;;;;15.38;6.35;;;;;;;7.00;60.92;101707.34;5031415;28;20069;-83
2021/03/01 06:04:29;;;;;;;19.42;8.07;;;;;;;6.99;61.13;101707.41;4998371;28;20054;-84
2021/03/01 06:06:55;;;;;;;20.02;8.13;;;;;;;6.97;61.04;101711.78;5015932;28;20105;-84
2021/03/01 06:09:22;;;;;;;17.90;7.05;;;;;;;6.97;61.07;101706.53;4998713;28;20129;-84
2021/03/01 06:11:48;;;;;;;13.60;6.82;;;;;;;6.96;60.92;101718.78;4998964;28;20394;-83
2021/03/01 06:14:15;;;;;;;15.27;7.03;;;;;;;6.95;61.16;101713.56;5016246;28;20177;-84
2021/03/01 06:17:08;;;;;;;15.18;7.28;;;;;;;6.90;62.06;101704.00;4998829;28;20119;-84
2021/03/01 06:19:50;;;;;;;20.92;7.43;;;;;;;6.91;61.84;101708.34;4998808;28;20465;-84
2021/03/01 06:22:19;;;;;;;18.02;7.03;;;;;;;6.94;60.89;101715.28;5004922;28;20045;-85
2021/03/01 06:25:14;;;;;;;19.30;7.95;;;;;;;6.90;62.09;101724.06;5018225;28;20100;-86
2021/03/01 06:27:48;;;;;;;18.50;7.28;;;;;;;6.91;61.70;101718.81;5018314;28;20053;-85
2021/03/01 06:30:15;;;;;;;19.17;7.63;;;;;;;6.91;61.31;101716.19;5018464;28;20053;-86
2021/03/01 06:32:42;;;;;;;18.85;8.10;;;;;;;6.92;61.13;101722.31;5008485;28;20495;-85
2021/03/01 06:35:30;;;;;;;16.88;7.20;;;;;;;6.88;62.22;101716.22;4998083;28;20508;-85
2021/03/01 06:38:15;;;;;;;19.02;8.20;;;;;;;6.89;62.16;101719.72;5015941;28;20076;-85
2021/03/01 06:40:41;;;;;;;16.33;7.10;;;;;;;6.92;61.13;101719.69;5015350;28;20573;-85
2021/03/01 06:43:14;;;;;;;18.20;8.07;;;;;;;6.90;62.07;101724.94;5027981;28;20053;-85
2021/03/01 06:45:41;;;;;;;16.40;7.28;;;;;;;6.92;61.34;101722.31;5017532;28;20065;-85
2021/03/01 06:48:08;;;;;;;20.17;7.28;;;;;;;6.91;61.44;101723.16;5035768;28;20049;-86
2021/03/01 06:50:44;;;;;;;17.88;7.82;;;;;;;6.91;61.84;101725.78;5035567;28;20049;-86
2021/03/01 06:53:11;;;;;;;21.65;8.07;;;;;;;6.93;61.52;101723.16;5022521;28;20124;-85
2021/03/01 06:55:56;;;;;;;21.20;7.70;;;;;;;6.92;61.40;101722.31;5015073;28;20492;-83
2021/03/01 06:58:27;;;;;;;16.13;7.57;;;;;;;6.93;61.33;101721.41;4997679;28;20050;-85
2021/03/01 07:01:12;;;;;;;20.77;7.70;;;;;;;6.90;62.43;101724.94;5015306;28;20050;-85
2021/03/01 07:03:43;;;;;;;21.20;7.72;;;;;;;6.94;61.30;101725.75;5015102;28;20046;-84
2021/03/01 07:06:11;;;;;;;17.45;7.10;;;;;;;6.95;61.41;101724.03;4998115;28;20050;-85
2021/03/01 07:08:48;;;;;;;18.40;7.38;;;;;;;6.94;61.68;101715.28;5014918;28;20547;-85
2021/03/01 07:11:31;;;;;;;17.55;7.90;;;;;;;6.95;62.70;101713.56;4997933;28;20124;-85
2021/03/01 07:14:03;;;;;;;22.52;8.05;;;;;;;6.98;62.35;101721.34;5015082;28;20053;-85
2021/03/01 07:16:35;;;;;;;19.63;6.78;;;;;;;6.99;62.24;101703.00;5032559;28;20431;-85
2021/03/01 07:19:05;;;;;;;15.00;7.45;;;;;;;7.03;61.66;101709.09;5017372;28;20055;-85
2021/03/01 07:21:33;;;;;;;13.75;6.55;;;;;;;7.03;61.38;101715.19;5017243;28;20049;-85
2021/03/01 07:23:59;;;;;;;19.98;7.28;;;;;;;7.06;61.66;101714.28;5017008;28;20045;-86
2021/03/01 07:26:26;;;;;;;20.02;7.18;;;;;;;7.06;61.71;101718.69;5030854;28;20054;-85
2021/03/01 07:29:00;;;;;;;18.58;7.13;;;;;;;7.08;61.89;101719.50;5034777;28;20049;-85
2021/03/01 07:31:32;;;;;;;17.55;7.22;;;;;;;7.10;61.37;101721.22;5034469;28;20049;-85
2021/03/01 07:34:01;;;;;;;17.30;7.35;;;;;;;7.14;61.60;101727.31;5006583;28;20053;-85
2021/03/01 07:36:27;;;;;;;14.73;7.15;;;;;;;7.16;61.43;101726.41;4997320;28;20054;-85
2021/03/01 07:38:57;;;;;;;16.08;6.47;;;;;;;7.17;61.78;101728.16;4997452;28;20060;-85
2021/03/01 07:41:24;;;;;;;15.05;7.15;;;;;;;7.20;61.33;101731.59;4997392;28;20101;-85
2021/03/01 07:43:51;;;;;;;17.52;7.05;;;;;;;7.22;61.29;101724.59;5023184;28;20073;-84
2021/03/01 07:46:17;;;;;;;16.55;6.22;;;;;;;7.22;61.21;101725.47;5034280;28;20053;-85
2021/03/01 07:48:44;;;;;;;17.42;6.65;;;;;;;7.23;61.19;101727.22;5034483;28;20099;-85
2021/03/01 07:51:12;;;;;;;18.50;7.25;;;;;;;7.24;61.52;101728.06;5016853;28;20511;-85
2021/03/01 07:53:53;;;;;;;14.00;6.38;;;;;;;7.23;62.12;101729.84;5010365;28;20054;-85
2021/03/01 07:56:22;;;;;;;14.85;6.68;;;;;;;7.24;61.67;101728.94;5014738;28;20408;-85
2021/03/01 07:58:58;;;;;;;17.13;7.35;;;;;;;7.25;62.31;101724.59;5014453;28;20057;-85
2021/03/01 08:01:25;;;;;;;15.38;6.90;;;;;;;7.29;61.35;101726.28;5014519;28;20041;-85
2021/03/01 08:03:51;;;;;;;17.42;7.28;;;;;;;7.32;61.35;101730.63;5003364;28;20057;-85
2021/03/01 08:06:18;;;;;;;17.35;7.57;;;;;;;7.34;61.22;101729.72;5016940;28;20072;-85
2021/03/01 08:08:49;;;;;;;19.48;6.57;;;;;;;7.34;61.16;101732.34;4996750;28;20053;-85
2021/03/01 08:11:37;;;;;;;18.67;6.13;;;;;;;7.33;61.95;101733.19;5014288;28;20512;-85
2021/03/01 08:14:11;;;;;;;12.25;6.22;;;;;;;7.36;61.71;101738.41;5022848;28;20046;-85
2021/03/01 08:16:38;;;;;;;13.95;6.00;;;;;;;7.39;61.46;101733.16;5016623;28;20056;-85
2021/03/01 08:19:05;;;;;;;16.80;6.53;;;;;;;7.41;61.23;101727.88;5016747;28;20060;-86
2021/03/01 08:22:03;;;;;;;16.70;6.03;;;;;;;7.42;62.07;101730.50;5031241;28;20053;-85
2021/03/01 08:24:53;;;;;;;13.13;6.13;;;;;;;7.48;62.15;101731.31;5014104;28;20112;-85
2021/03/01 08:27:24;;;;;;;14.23;6.15;;;;;;;7.52;61.69;101739.09;5014512;28;20041;-85
2021/03/01 08:30:32;;;;;;;15.40;6.57;;;;;;;7.54;62.03;101732.09;4996777;28;20131;-85
2021/03/01 08:33:07;;;;;;;12.68;5.43;;;;;;;7.62;61.54;101741.63;5027734;28;20096;-85
2021/03/01 08:35:39;;;;;;;16.13;6.68;;;;;;;7.66;61.30;101741.53;5033649;28;20060;-85
2021/03/01 08:38:06;;;;;;;16.05;6.55;;;;;;;7.71;61.28;101732.75;5033475;28;20049;-85
2021/03/01 08:40:33;;;;;;;15.93;6.68;;;;;;;7.72;61.05;101739.72;5033606;28;20103;-85
2021/03/01 08:43:02;;;;;;;32.83;7.22;;;;;;;7.69;60.97;101738.91;5019540;28;20104;-85
2021/03/01 08:45:31;;;;;;;14.35;6.78;;;;;;;7.73;61.48;101747.56;5013709;28;20054;-85
2021/03/01 08:48:00;;;;;;;16.75;7.07;;;;;;;7.75;61.49;101737.06;5041699;22;20057;-85
2021/03/01 08:50:38;;;;;;;16.45;6.88;;;;;;;7.76;61.61;101737.06;5023678;28;20050;-85
2021/03/01 08:53:09;;;;;;;15.48;6.25;;;;;;;7.82;61.35;101736.13;5012596;28;20045;-85
2021/03/01 08:55:37;;;;;;;13.25;6.10;;;;;;;7.87;61.31;101736.03;5011991;28;20049;-85
2021/03/01 08:58:14;;;;;;;12.45;6.32;;;;;;;7.87;61.53;101725.53;4994860;28;20054;-85
2021/03/01 09:00:55;;;;;;;16.25;6.57;;;;;;;7.88;61.38;101730.78;4996619;28;20061;-85
2021/03/01 09:03:43;;;;;;;15.20;6.15;;;;;;;7.93;60.68;101733.34;4993810;28;20053;-85
2021/03/01 09:06:15;;;;;;;12.95;6.18;;;;;;;7.95;60.99;101735.06;4992882;28;20046;-85
2021/03/01 09:08:56;;;;;;;17.40;6.38;;;;;;;7.97;61.33;101728.91;4994112;28;20061;-85
2021/03/01 09:11:25;;;;;;;16.45;6.43;;;;;;;7.99;60.45;101735.88;5004074;28;20045;-85
2021/03/01 09:13:54;;;;;;;15.70;6.82;;;;;;;8.01;60.61;101733.22;5010434;28;20058;-85
2021/03/01 09:16:26;;;;;;;14.68;6.75;;;;;;;7.97;61.04;101735.03;5012262;28;20107;-85
2021/03/01 09:19:03;;;;;;;17.88;7.85;;;;;;;7.99;60.92;101737.66;5012236;28;20057;-85
2021/03/01 09:21:30;;;;;;;17.13;6.95;;;;;;;8.01;60.73;101735.84;5015457;28;20046;-88
2021/03/01 09:23:57;;;;;;;14.50;5.97;;;;;;;8.03;60.71;101729.69;5016014;28;20443;-88
2021/03/01 09:26:35;;;;;;;14.23;6.82;;;;;;;8.02;61.00;101725.34;5015936;28;20099;-88
2021/03/01 09:29:06;;;;;;;15.88;7.13;;;;;;;8.04;60.59;101720.09;5016077;28;20088;-88
2021/03/01 09:31:43;;;;;;;14.80;6.88;;;;;;;8.05;60.57;101729.69;4999272;28;20057;-89
2021/03/01 09:34:15;;;;;;;17.45;7.68;;;;;;;8.05;60.61;101732.28;4995983;28;20054;-88
2021/03/01 09:36:47;;;;;;;16.73;7.60;;;;;;;8.08;60.72;101734.88;4996406;28;20061;-88
2021/03/01 09:39:19;;;;;;;16.75;7.43;;;;;;;8.07;60.41;101730.50;4996143;28;20129;-89
2021/03/01 09:41:47;;;;;;;;;;;;;;;8.10;60.59;101730.47;4997953;28;20456;-88
2021/03/01 09:44:31;;;;;;;17.13;7.57;;;;;;;8.12;60.47;101726.09;4997042;28;20280;-88
2021/03/01 09:46:59;;;;;;;16.33;7.45;;;;;;;8.15;60.24;101730.41;4995716;28;20549;-89
2021/03/01 09:49:28;;;;;;;15.23;7.53;;;;;;;8.13;60.18;101725.19;4995885;28;20046;-88
2021/03/01 09:51:55;;;;;;;19.55;7.30;;;;;;;8.14;60.36;101731.28;5014109;28;20100;-88
2021/03/01 09:54:25;;;;;;;16.05;8.05;;;;;;;8.12;60.23;101719.97;5015352;28;20123;-88
2021/03/01 09:56:54;;;;;;;19.27;8.20;;;;;;;8.13;60.46;101714.69;5015597;28;20108;-89
2021/03/01 09:59:37;;;;;;;16.20;8.27;;;;;;;8.12;60.65;101715.59;5015376;28;20133;-89
2021/03/01 10:02:25;;;;;;;18.40;7.38;;;;;;;8.16;60.36;101713.78;4995668;28;20460;-88
2021/03/01 10:05:08;;;;;;;16.60;7.20;;;;;;;8.18;60.50;101714.59;4995632;28;20141;-89
2021/03/01 10:07:36;;;;;;;15.73;7.25;;;;;;;8.23;60.22;101720.69;4995563;28;20060;-89
2021/03/01 10:10:15;;;;;;;16.10;7.25;;;;;;;8.20;60.66;101721.59;4999317;28;20081;-88
2021/03/01 10:12:49;;;;;;;17.42;7.18;;;;;;;8.25;60.60;101718.00;5015075;28;20103;-89
2021/03/01 10:15:20;;;;;;;18.33;8.30;;;;;;;8.31;60.20;101717.91;5014448;28;20054;-89
2021/03/01 10:17:46;;;;;;;17.30;8.10;;;;;;;8.35;60.37;101716.97;5011912;28;20054;-88
2021/03/01 10:20:14;;;;;;;15.57;8.18;;;;;;;8.41;60.27;101726.53;4996524;28;20105;-89
2021/03/01 10:23:03;;;;;;;16.55;9.00;;;;;;;8.42;60.40;101725.63;4995618;28;20536;-88
2021/03/01 10:25:40;;;;;;;19.50;8.35;;;;;;;8.47;60.33;101729.91;4996338;28;20417;-89
2021/03/01 10:28:25;;;;;;;17.08;8.27;;;;;;;8.54;59.82;101740.31;4995125;28;20046;-89
2021/03/01 10:31:06;;;;;;;16.27;8.23;;;;;;;8.53;60.02;101733.34;4995994;28;20065;-88
2021/03/01 10:33:49;;;;;;;17.58;8.73;;;;;;;8.52;59.67;101734.22;5002259;28;20046;-89
2021/03/01 10:36:15;;;;;;;17.40;8.50;;;;;;;8.56;59.15;101728.06;5016079;28;20420;-89
2021/03/01 10:38:57;;;;;;;15.43;8.30;;;;;;;8.52;59.57;101731.59;5031099;28;20104;-89
2021/03/01 10:41:26;;;;;;;14.43;8.25;;;;;;;8.54;59.50;101729.84;5014582;28;20049;-89
2021/03/01 10:44:04;;;;;;;14.77;8.27;;;;;;;8.52;59.78;101729.81;5014527;28;20050;-89
2021/03/01 10:46:43;;;;;;;18.27;9.18;;;;;;;8.55;59.79;101732.44;5015566;28;20050;-89
2021/03/01 10:49:20;;;;;;;18.08;9.98;;;;;;;8.60;60.10;101735.00;5015368;28;20492;-89
2021/03/01 10:51:49;;;;;;;20.38;9.40;;;;;;;8.68;60.00;101732.22;5014416;28;20094;-88
2021/03/01 10:54:16;;;;;;;19.55;9.88;;;;;;;8.76;59.76;101735.59;5001404;28;20050;-88
2021/03/01 10:56:42;;;;;;;16.67;10.00;;;;;;;8.84;59.75;101738.06;4994644;28;20110;-88
2021/03/01 10:59:09;;;;;;;20.42;10.20;;;;;;;8.89;59.75;101736.22;4994733;28;20054;-88
2021/03/01 11:01:38;;;;;;;19.38;9.32;;;;;;;8.94;59.51;101729.13;4995800;28;20050;-89
2021/03/01 11:04:06;;;;;;;16.27;10.18;;;;;;;9.00;59.04;101733.41;5006257;28;20419;-89
2021/03/01 11:06:33;;;;;;;18.73;10.15;;;;;;;9.05;59.17;101735.97;5012033;28;20045;-89
2021/03/01 11:09:01;;;;;;;18.52;10.40;;;;;;;9.08;59.07;101731.50;5013828;28;20515;-90
2021/03/01 11:11:27;;;;;;;19.42;10.40;;;;;;;9.13;59.29;101723.56;5014098;28;20053;-89
2021/03/01 11:13:53;;;;;;;19.30;9.77;;;;;;;9.17;59.08;101735.72;5013501;28;20496;-88
2021/03/01 11:16:19;;;;;;;18.42;10.38;;;;;;;9.22;59.20;101727.75;4997965;28;20050;-89
2021/03/01 11:18:46;;;;;;;19.58;10.02;;;;;;;9.28;59.56;101721.50;5005774;28;20168;-89
2021/03/01 11:21:12;;;;;;;19.13;10.75;;;;;;;9.36;58.88;101722.22;5013835;28;20050;-89
2021/03/01 11:23:39;;;;;;;20.75;10.95;;;;;;;9.45;59.49;101726.41;5014342;28;20058;-88
2021/03/01 11:26:05;;;;;;;17.95;10.98;;;;;;;9.55;59.30;101722.72;4998937;28;20058;-88
2021/03/01 11:28:33;;;;;;;16.15;9.45;;;;;;;9.67;59.36;101718.94;4995053;28;20116;-89
2021/03/01 11:30:59;;;;;;;19.75;10.43;;;;;;;9.83;59.26;101713.38;4994922;28;20050;-88
2021/03/01 11:33:25;;;;;;;19.73;10.05;;;;;;;10.03;59.83;101711.13;4995113;28;20046;-88
2021/03/01 11:35:54;;;;;;;17.85;10.13;;;;;;;10.32;60.99;101711.31;5009291;28;20046;-89
2021/03/01 11:38:30;;;;;;;19.65;11.52;;;;;;;10.71;61.30;101710.41;4995103;28;20533;-89
2021/03/01 11:40:58;;;;;;;17.75;10.45;;;;;;;11.14;61.31;101702.25;4995071;28;20058;-89
2021/03/01 11:43:44;;;;;;;18.48;10.25;;;;;;;11.65;61.17;101699.91;4994099;28;20543;-88
2021/03/01 11:46:10;;;;;;;17.48;10.48;;;;;;;12.11;60.67;101693.22;4993584;28;20055;-89
2021/03/01 11:48:38;;;;;;;17.05;10.65;;;;;;;12.58;59.23;101697.00;4994020;28;20056;-89
2021/03/01 11:51:04;;;;;;;17.95;10.88;;;;;;;13.01;59.47;101688.47;4993724;28;20054;-90
2021/03/01 11:53:30;;;;;;;18.17;11.35;;;;;;;13.51;59.38;101689.31;4995300;28;20050;-89
2021/03/01 11:55:56;;;;;;;15.30;10.48;;;;;;;14.11;59.16;101680.78;5012773;28;20049;-90
2021/03/01 11:58:22;;;;;;;16.60;10.25;;;;;;;14.75;58.18;101677.25;5013279;28;20049;-90
2021/03/01 12:00:49;;;;;;;16.85;10.55;;;;;;;15.42;57.04;101666.34;5013310;28;20048;-90
2021/03/01 12:03:24;;;;;;;15.43;10.15;;;;;;;16.08;55.68;101666.78;5013671;28;20058;-89
2021/03/01 12:05:51;;;;;;;14.90;10.23;;;;;;;16.70;54.31;101671.63;4993237;28;20057;-90
2021/03/01 12:08:17;;;;;;;13.75;10.23;;;;;;;17.27;53.60;101658.94;4993594;28;20050;-90
2021/03/01 12:10:43;;;;;;;13.10;10.02;;;;;;;17.84;52.68;101657.53;4993441;28;20101;-91
2021/03/01 12:13:10;;;;;;;16.85;10.57;;;;;;;18.42;51.32;101654.22;4994268;28;20054;-90
2021/03/01 12:15:37;;;;;;;17.50;10.23;;;;;;;18.98;49.59;101658.84;5010934;28;20496;-89
2021/03/01 12:18:04;;;;;;;15.63;9.80;;;;;;;19.47;48.68;101657.59;5012943;28;20045;-90
2021/03/01 12:20:30;;;;;;;11.82;9.52;;;;;;;19.95;48.30;101650.09;5013751;28;20050;-89
2021/03/01 12:22:56;;;;;;;13.70;9.35;;;;;;;20.42;47.38;101653.19;5012860;28;20046;-89
2021/03/01 12:25:22;;;;;;;16.70;10.35;;;;;;;20.88;46.41;101641.13;4996193;28;20058;-89
2021/03/01 12:27:49;;;;;;;15.75;10.63;;;;;;;21.32;44.92;101638.91;5004952;28;20055;-90
2021/03/01 12:30:16;;;;;;;12.93;9.13;;;;;;;21.72;44.13;101635.13;5012515;28;20049;-89
2021/03/01 12:33:01;;;;;;;11.68;9.40;;;;;;;22.10;43.73;101630.50;5012931;28;20131;-88
2021/03/01 12:35:28;;;;;;;14.45;10.52;;;;;;;22.41;42.38;101624.63;5012681;28;20054;-89
2021/03/01 12:37:54;;;;;;;13.20;10.45;;;;;;;22.70;41.70;101626.91;5028954;28;20492;-89
2021/03/01 12:40:21;;;;;;;12.68;10.50;;;;;;;22.97;40.75;101628.34;5013872;28;20054;-90
2021/03/01 12:42:48;;;;;;;12.25;10.02;;;;;;;23.21;40.15;101626.50;5012770;28;20471;-89
2021/03/01 12:45:14;;;;;;;13.13;9.55;;;;;;;23.39;39.60;101616.09;5006550;28;20041;-89
2021/03/01 12:47:40;;;;;;;13.10;10.43;;;;;;;23.58;39.13;101617.28;5012381;28;20050;-87
2021/03/01 12:50:07;;;;;;;12.68;9.65;;;;;;;23.74;38.11;101609.59;5013718;28;20050;-89
2021/03/01 12:52:33;;;;;;;12.10;9.85;;;;;;;23.87;37.98;101604.06;5013609;28;20424;-89
2021/03/01 12:55:00;;;;;;;13.07;9.35;;;;;;;23.96;37.33;101610.50;5011391;28;20046;-88
2021/03/01 12:57:26;;;;;;;12.77;10.05;;;;;;;24.06;37.39;101614.09;5032916;28;20103;-89
2021/03/01 12:59:52;;;;;;;13.93;11.15;;;;;;;24.18;37.15;101600.63;5016483;28;20053;-89
2021/03/01 13:02:19;;;;;;;15.25;11.25;;;;;;;24.26;36.34;101597.28;5016681;28;20050;-88
2021/03/01 13:04:45;;;;;;;14.88;10.95;;;;;;;24.33;36.28;101604.69;5015937;28;20724;-88
2021/03/01 13:07:12;;;;;;;12.27;9.93;;;;;;;24.45;35.96;101602.75;5000345;28;20061;-89
2021/03/01 13:09:38;;;;;;;11.18;9.60;;;;;;;24.57;35.66;101606.22;5015154;28;20050;-89
2021/03/01 13:12:08;;;;;;;12.00;9.13;;;;;;;24.69;35.10;101598.03;5016465;28;20096;-88
2021/03/01 13:14:34;;;;;;;11.82;8.95;;;;;;;24.80;34.73;101600.66;5017166;28;20053;-90
2021/03/01 13:17:01;;;;;;;11.68;9.23;;;;;;;24.87;34.96;101592.91;5000770;28;20572;-88
2021/03/01 13:19:27;;;;;;;13.60;8.77;;;;;;;24.96;34.33;101585.81;4997978;28;20105;-89
2021/03/01 13:21:53;;;;;;;10.85;8.75;;;;;;;25.04;34.07;101585.16;4996557;28;20046;-89
2021/03/01 13:24:19;;;;;;;11.82;8.73;;;;;;;25.11;33.96;101578.19;5025369;28;20076;-89
2021/03/01 13:26:46;;;;;;;13.23;9.63;;;;;;;25.09;33.38;101583.72;5032586;28;20046;-90
2021/03/01 13:29:13;;;;;;;10.07;8.55;;;;;;;25.01;33.22;101574.66;5000485;28;20054;-89
2021/03/01 13:31:39;;;;;;;10.35;8.98;;;;;;;24.88;32.39;101567.66;5017094;28;20129;-89
2021/03/01 13:34:06;;;;;;;11.52;9.18;;;;;;;24.69;32.89;101565.72;5009682;28;20068;-89
2021/03/01 13:36:32;;;;;;;11.55;9.00;;;;;;;24.45;32.34;101569.63;5008905;28;20445;-89
2021/03/01 13:38:59;;;;;;;13.57;9.43;;;;;;;24.16;32.67;101562.22;4995999;28;20054;-89
2021/03/01 13:41:25;;;;;;;11.13;8.98;;;;;;;23.84;32.32;101561.28;4997315;28;20053;-89
2021/03/01 13:43:51;;;;;;;10.55;8.57;;;;;;;23.53;32.63;101561.19;5004692;28;20456;-89
2021/03/01 13:46:26;;;;;;;11.38;9.18;;;;;;;23.19;32.83;101566.66;4995838;28;20808;-87
2021/03/01 13:48:53;;;;;;;12.65;9.18;;;;;;;22.84;33.06;101555.13;4995977;28;20054;-90
2021/03/01 13:51:19;;;;;;;13.18;9.57;;;;;;;22.50;33.28;101561.34;5012206;28;20046;-89
2021/03/01 13:53:45;;;;;;;12.70;9.63;;;;;;;22.17;33.76;101554.97;5011977;28;20469;-88
2021/03/01 13:56:11;;;;;;;13.88;10.35;;;;;;;21.84;33.90;101562.81;5029363;28;20053;-89
2021/03/01 13:58:38;;;;;;;12.43;9.52;;;;;;;21.54;34.00;101561.44;5015629;28;20049;-89
2021/03/01 14:01:04;;;;;;;12.80;9.32;;;;;;;21.25;34.52;101554.63;5015390;28;20385;-89
2021/03/01 14:03:31;;;;;;;14.45;10.07;;;;;;;20.98;34.86;101552.13;5031655;28;20228;-89
2021/03/01 14:05:58;;;;;;;11.65;9.00;;;;;;;20.75;35.33;101543.94;4999501;28;20050;-89
2021/03/01 14:08:24;;;;;;;10.57;9.23;;;;;;;20.59;35.82;101546.84;5014414;28;20054;-89